NKS257 KFLL-KATL
Flight info
| Callsign | NKS257 |
|---|---|
| Flight time | N/A |
| Altitude | 36000 |
| Route | FRSBE2 STYMY Q77 MJAMS/N0429F350 Q77 SHRKS/N0435F360 LAIRI LARZZ JJEDI4 |
| Aircraft | A320/M-SDE3FGHIRWY/LB1 |
Departure
| Time | 2026-05-03 20:33 |
|---|---|
| Airport | Fort Lauderdale Hollywood International Airport (KFLL) |
Arrival
| Time | N/A |
|---|---|
| Airport | Hartsfield Jackson Atlanta International Airport (KATL) |
| Time | Latitude | Longitude | Altitude | Speed | Heading |
|---|---|---|---|---|---|
| 2026-05-03 20:15 | 26.07032 | -80.14581 | 29 ft | 4 kts | 24° |
| 2026-05-03 20:15 | 26.07015 | -80.14589 | 29 ft | 0 kts | 33° |
| 2026-05-03 20:20 | 26.07004 | -80.14601 | 31 ft | 4 kts | 59° |
| 2026-05-03 20:20 | 26.06994 | -80.14628 | 30 ft | 4 kts | 88° |
| 2026-05-03 20:20 | 26.06994 | -80.14657 | 29 ft | 4 kts | 89° |
| 2026-05-03 20:21 | 26.06994 | -80.14687 | 28 ft | 4 kts | 89° |
| 2026-05-03 20:21 | 26.06994 | -80.14717 | 28 ft | 4 kts | 94° |
| 2026-05-03 20:21 | 26.06997 | -80.14746 | 29 ft | 4 kts | 103° |
| 2026-05-03 20:21 | 26.07008 | -80.14773 | 28 ft | 4 kts | 131° |
| 2026-05-03 20:22 | 26.07020 | -80.14787 | 27 ft | 0 kts | 135° |
| 2026-05-03 20:24 | 26.07020 | -80.14786 | 27 ft | 1 kts | 135° |
| 2026-05-03 20:24 | 26.06988 | -80.14762 | 29 ft | 6 kts | 154° |
| 2026-05-03 20:24 | 26.06953 | -80.14765 | 31 ft | 5 kts | 198° |
| 2026-05-03 20:25 | 26.06927 | -80.14784 | 33 ft | 8 kts | 225° |
| 2026-05-03 20:25 | 26.06910 | -80.14898 | 33 ft | 20 kts | 274° |
| 2026-05-03 20:25 | 26.06912 | -80.15028 | 33 ft | 18 kts | 269° |
| 2026-05-03 20:25 | 26.06900 | -80.15111 | 33 ft | 9 kts | 230° |
| 2026-05-03 20:26 | 26.06838 | -80.15129 | 34 ft | 9 kts | 186° |
| 2026-05-03 20:26 | 26.06770 | -80.15131 | 35 ft | 10 kts | 180° |
| 2026-05-03 20:26 | 26.06703 | -80.15156 | 37 ft | 11 kts | 239° |
| 2026-05-03 20:26 | 26.06696 | -80.15247 | 36 ft | 14 kts | 270° |
| 2026-05-03 20:27 | 26.06698 | -80.15366 | 32 ft | 17 kts | 271° |
| 2026-05-03 20:27 | 26.06722 | -80.15498 | 30 ft | 13 kts | 259° |
| 2026-05-03 20:27 | 26.06698 | -80.15569 | 28 ft | 11 kts | 263° |
| 2026-05-03 20:27 | 26.06700 | -80.15669 | 28 ft | 14 kts | 270° |
| 2026-05-03 20:28 | 26.06699 | -80.15739 | 24 ft | 7 kts | 269° |
| 2026-05-03 20:28 | 26.06695 | -80.15783 | 21 ft | 6 kts | 246° |
| 2026-05-03 20:28 | 26.06683 | -80.15806 | 22 ft | 0 kts | 231° |
| 2026-05-03 20:31 | 26.06646 | -80.15822 | 19 ft | 15 kts | 173° |
| 2026-05-03 20:32 | 26.06592 | -80.15768 | 20 ft | 10 kts | 107° |
| 2026-05-03 20:32 | 26.06589 | -80.15738 | 22 ft | 0 kts | 89° |
| 2026-05-03 20:33 | 26.06589 | -80.15710 | 23 ft | 23 kts | 90° |
| 2026-05-03 20:33 | 26.06587 | -80.15238 | 35 ft | 96 kts | 91° |
| 2026-05-03 20:33 | 26.06586 | -80.14269 | 68 ft | 147 kts | 86° |
| 2026-05-03 20:33 | 26.06569 | -80.13104 | 631 ft | 154 kts | 88° |
| 2026-05-03 20:34 | 26.06599 | -80.11913 | 1330 ft | 154 kts | 86° |
| 2026-05-03 20:34 | 26.06811 | -80.10739 | 1927 ft | 159 kts | 63° |
| 2026-05-03 20:34 | 26.07424 | -80.09629 | 2281 ft | 179 kts | 54° |
| 2026-05-03 20:34 | 26.08152 | -80.08399 | 2580 ft | 202 kts | 55° |
| 2026-05-03 20:35 | 26.09169 | -80.07213 | 2871 ft | 223 kts | 31° |
| 2026-05-03 20:35 | 26.10633 | -80.06491 | 3228 ft | 242 kts | 18° |
| 2026-05-03 20:35 | 26.12253 | -80.05844 | 3826 ft | 252 kts | 17° |
| 2026-05-03 20:35 | 26.13931 | -80.05178 | 3987 ft | 264 kts | 15° |
| 2026-05-03 20:36 | 26.15759 | -80.04890 | 4021 ft | 267 kts | 353° |
| 2026-05-03 20:36 | 26.17547 | -80.05378 | 4028 ft | 266 kts | 339° |
| 2026-05-03 20:36 | 26.19290 | -80.06060 | 4024 ft | 266 kts | 338° |
| 2026-05-03 20:36 | 26.20965 | -80.06913 | 4024 ft | 264 kts | 324° |
| 2026-05-03 20:37 | 26.22346 | -80.08238 | 4031 ft | 263 kts | 308° |
| 2026-05-03 20:37 | 26.23333 | -80.09947 | 4025 ft | 260 kts | 292° |
| 2026-05-03 20:37 | 26.23990 | -80.11786 | 4024 ft | 258 kts | 291° |
| 2026-05-03 20:37 | 26.24653 | -80.13653 | 4023 ft | 259 kts | 291° |
| 2026-05-03 20:38 | 26.25323 | -80.15516 | 4018 ft | 260 kts | 293° |
| 2026-05-03 20:38 | 26.26235 | -80.17264 | 4022 ft | 262 kts | 302° |
| 2026-05-03 20:38 | 26.27217 | -80.18971 | 4024 ft | 262 kts | 301° |
| 2026-05-03 20:38 | 26.28194 | -80.20681 | 4025 ft | 262 kts | 301° |
| 2026-05-03 20:39 | 26.29169 | -80.22400 | 4026 ft | 262 kts | 301° |
| 2026-05-03 20:39 | 26.30144 | -80.24121 | 4025 ft | 262 kts | 301° |
| 2026-05-03 20:39 | 26.31120 | -80.25842 | 4024 ft | 262 kts | 301° |
| 2026-05-03 20:39 | 26.32093 | -80.27560 | 4029 ft | 262 kts | 301° |
| 2026-05-03 20:40 | 26.33068 | -80.29282 | 4028 ft | 262 kts | 301° |
| 2026-05-03 20:40 | 26.34042 | -80.31001 | 4031 ft | 262 kts | 302° |
| 2026-05-03 20:40 | 26.35007 | -80.32707 | 4026 ft | 260 kts | 301° |
| 2026-05-03 20:40 | 26.35965 | -80.34395 | 4025 ft | 262 kts | 301° |
| 2026-05-03 20:41 | 26.36945 | -80.36124 | 4295 ft | 267 kts | 300° |
| 2026-05-03 20:41 | 26.37934 | -80.37867 | 5619 ft | 267 kts | 301° |
| 2026-05-03 20:41 | 26.38933 | -80.39631 | 6799 ft | 274 kts | 300° |
| 2026-05-03 20:41 | 26.39967 | -80.41463 | 7882 ft | 277 kts | 300° |
| 2026-05-03 20:42 | 26.40989 | -80.43273 | 9014 ft | 275 kts | 299° |
| 2026-05-03 20:42 | 26.42012 | -80.45083 | 10000 ft | 276 kts | 299° |
| 2026-05-03 20:42 | 26.43064 | -80.46951 | 10434 ft | 298 kts | 299° |
| 2026-05-03 20:42 | 26.44196 | -80.48962 | 10933 ft | 311 kts | 299° |
| 2026-05-03 20:43 | 26.45361 | -80.51026 | 11677 ft | 316 kts | 299° |
| 2026-05-03 20:43 | 26.46547 | -80.53108 | 12459 ft | 320 kts | 301° |
| 2026-05-03 20:43 | 26.47999 | -80.55032 | 12884 ft | 328 kts | 313° |
| 2026-05-03 20:43 | 26.49845 | -80.56572 | 12999 ft | 336 kts | 326° |
| 2026-05-03 20:44 | 26.52002 | -80.57612 | 13025 ft | 341 kts | 338° |
| 2026-05-03 20:44 | 26.54289 | -80.58322 | 13028 ft | 341 kts | 339° |
| 2026-05-03 20:44 | 26.56574 | -80.59035 | 13027 ft | 341 kts | 339° |
| 2026-05-03 20:44 | 26.58860 | -80.59758 | 13028 ft | 341 kts | 339° |
| 2026-05-03 20:45 | 26.61147 | -80.60483 | 13028 ft | 342 kts | 339° |
| 2026-05-03 20:45 | 26.62660 | -80.60965 | 13028 ft | 342 kts | 339° |
| 2026-05-03 20:45 | 26.65715 | -80.61940 | 13025 ft | 341 kts | 339° |
| 2026-05-03 20:45 | 26.67225 | -80.62423 | 13030 ft | 341 kts | 339° |
| 2026-05-03 20:46 | 26.69502 | -80.63151 | 13027 ft | 340 kts | 339° |
| 2026-05-03 20:46 | 26.71780 | -80.63876 | 13025 ft | 341 kts | 339° |
| 2026-05-03 20:46 | 26.74060 | -80.64600 | 13029 ft | 341 kts | 339° |
| 2026-05-03 20:46 | 26.76341 | -80.65327 | 13028 ft | 341 kts | 339° |
| 2026-05-03 20:47 | 26.78639 | -80.66063 | 13574 ft | 345 kts | 339° |
| 2026-05-03 20:47 | 26.80959 | -80.66806 | 14312 ft | 348 kts | 339° |
| 2026-05-03 20:47 | 26.83300 | -80.67553 | 14970 ft | 351 kts | 338° |
| 2026-05-03 20:47 | 26.85661 | -80.68307 | 15626 ft | 355 kts | 338° |
| 2026-05-03 20:48 | 26.88047 | -80.69073 | 16335 ft | 359 kts | 338° |
| 2026-05-03 20:48 | 26.90464 | -80.69849 | 17025 ft | 363 kts | 338° |
| 2026-05-03 20:48 | 26.92898 | -80.70661 | 17731 ft | 366 kts | 336° |
| 2026-05-03 20:48 | 26.95331 | -80.71548 | 18378 ft | 369 kts | 334° |
| 2026-05-03 20:49 | 26.97777 | -80.72484 | 18918 ft | 373 kts | 334° |
| 2026-05-03 20:49 | 27.00239 | -80.73446 | 19498 ft | 377 kts | 333° |
| 2026-05-03 20:49 | 27.02692 | -80.74406 | 20073 ft | 380 kts | 333° |
| 2026-05-03 20:49 | 27.05207 | -80.75383 | 20639 ft | 384 kts | 333° |
| 2026-05-03 20:50 | 27.07744 | -80.76355 | 21181 ft | 388 kts | 333° |
| 2026-05-03 20:50 | 27.10313 | -80.77329 | 21711 ft | 392 kts | 333° |
| 2026-05-03 20:50 | 27.12909 | -80.78305 | 22225 ft | 395 kts | 333° |
| 2026-05-03 20:50 | 27.15529 | -80.79290 | 22744 ft | 399 kts | 333° |
| 2026-05-03 20:51 | 27.18172 | -80.80287 | 23268 ft | 402 kts | 333° |
| 2026-05-03 20:51 | 27.20838 | -80.81294 | 23757 ft | 406 kts | 333° |
| 2026-05-03 20:51 | 27.23533 | -80.82316 | 24203 ft | 409 kts | 333° |
| 2026-05-03 20:51 | 27.26239 | -80.83346 | 24654 ft | 412 kts | 332° |
| 2026-05-03 20:52 | 27.28969 | -80.84388 | 25131 ft | 415 kts | 332° |
| 2026-05-03 20:52 | 27.31707 | -80.85430 | 25580 ft | 418 kts | 332° |
| 2026-05-03 20:52 | 27.34427 | -80.86483 | 26033 ft | 419 kts | 332° |
| 2026-05-03 20:52 | 27.37218 | -80.87611 | 26507 ft | 421 kts | 331° |
| 2026-05-03 20:53 | 27.39974 | -80.88754 | 26947 ft | 424 kts | 330° |
| 2026-05-03 20:53 | 27.42747 | -80.89915 | 27401 ft | 427 kts | 330° |
| 2026-05-03 20:53 | 27.45538 | -80.91086 | 27833 ft | 429 kts | 330° |
| 2026-05-03 20:53 | 27.48349 | -80.92259 | 28271 ft | 432 kts | 330° |
| 2026-05-03 20:54 | 27.51163 | -80.93422 | 28697 ft | 435 kts | 331° |
| 2026-05-03 20:54 | 27.56883 | -80.95779 | 29568 ft | 441 kts | 331° |
| 2026-05-03 20:54 | 27.59775 | -80.96970 | 30008 ft | 444 kts | 330° |
| 2026-05-03 20:55 | 27.62686 | -80.98171 | 30393 ft | 447 kts | 330° |
| 2026-05-03 20:55 | 27.65618 | -80.99380 | 30781 ft | 449 kts | 330° |
| 2026-05-03 20:55 | 27.68560 | -81.00593 | 31167 ft | 451 kts | 330° |
| 2026-05-03 20:55 | 27.71512 | -81.01814 | 31548 ft | 453 kts | 329° |
| 2026-05-03 20:56 | 27.74472 | -81.03038 | 31953 ft | 454 kts | 329° |
| 2026-05-03 20:56 | 27.77430 | -81.04256 | 32515 ft | 451 kts | 329° |
| 2026-05-03 20:56 | 27.80371 | -81.05463 | 33108 ft | 448 kts | 328° |
| 2026-05-03 20:56 | 27.83292 | -81.06664 | 33705 ft | 445 kts | 328° |
| 2026-05-03 20:57 | 27.86190 | -81.07863 | 34281 ft | 442 kts | 327° |
| 2026-05-03 20:57 | 27.89071 | -81.09058 | 34747 ft | 440 kts | 327° |
| 2026-05-03 20:57 | 27.91942 | -81.10259 | 35015 ft | 441 kts | 327° |
| 2026-05-03 20:57 | 27.94812 | -81.11458 | 35086 ft | 436 kts | 327° |
| 2026-05-03 20:58 | 28.00437 | -81.13789 | 35098 ft | 428 kts | 326° |
| 2026-05-03 20:58 | 28.05972 | -81.16185 | 35106 ft | 422 kts | 323° |
| 2026-05-03 20:59 | 28.11290 | -81.18905 | 35101 ft | 417 kts | 321° |
| 2026-05-03 20:59 | 28.16499 | -81.21708 | 35110 ft | 417 kts | 321° |
| 2026-05-03 21:00 | 28.20886 | -81.24029 | 35121 ft | 418 kts | 322° |
| 2026-05-03 21:00 | 28.27085 | -81.27227 | 35124 ft | 419 kts | 322° |
| 2026-05-03 21:01 | 28.32399 | -81.29954 | 35115 ft | 419 kts | 322° |
| 2026-05-03 21:01 | 28.37706 | -81.32681 | 35105 ft | 419 kts | 322° |
| 2026-05-03 21:02 | 28.43025 | -81.35395 | 35107 ft | 419 kts | 322° |
| 2026-05-03 21:02 | 28.48348 | -81.38108 | 35124 ft | 419 kts | 322° |
| 2026-05-03 21:03 | 28.53633 | -81.40811 | 35119 ft | 419 kts | 322° |
| 2026-05-03 21:03 | 28.58971 | -81.43559 | 35122 ft | 419 kts | 322° |
| 2026-05-03 21:04 | 28.64249 | -81.46275 | 35132 ft | 419 kts | 322° |
| 2026-05-03 21:04 | 28.69565 | -81.49006 | 35136 ft | 419 kts | 322° |
| 2026-05-03 21:05 | 28.74874 | -81.51731 | 35139 ft | 419 kts | 322° |
| 2026-05-03 21:05 | 28.80181 | -81.54457 | 35127 ft | 419 kts | 322° |
| 2026-05-03 21:06 | 28.85535 | -81.57218 | 35105 ft | 424 kts | 322° |
| 2026-05-03 21:06 | 28.90929 | -81.59978 | 35107 ft | 430 kts | 326° |
| 2026-05-03 21:07 | 28.93853 | -81.60948 | 35101 ft | 447 kts | 336° |
| 2026-05-03 21:07 | 28.96986 | -81.61348 | 35110 ft | 458 kts | 342° |
| 2026-05-03 21:07 | 29.03346 | -81.61901 | 35107 ft | 457 kts | 342° |
| 2026-05-03 21:08 | 29.09655 | -81.62463 | 35128 ft | 457 kts | 342° |
| 2026-05-03 21:08 | 29.15995 | -81.63048 | 35137 ft | 457 kts | 342° |
| 2026-05-03 21:09 | 29.22333 | -81.63630 | 35149 ft | 457 kts | 342° |
| 2026-05-03 21:09 | 29.28678 | -81.64211 | 35157 ft | 457 kts | 342° |
| 2026-05-03 21:10 | 29.35011 | -81.64801 | 35162 ft | 457 kts | 342° |
| 2026-05-03 21:10 | 29.41346 | -81.65383 | 35167 ft | 456 kts | 342° |
| 2026-05-03 21:11 | 29.47673 | -81.65956 | 35171 ft | 456 kts | 342° |
| 2026-05-03 21:11 | 29.53998 | -81.66542 | 35171 ft | 455 kts | 342° |
| 2026-05-03 21:12 | 29.60308 | -81.67129 | 35171 ft | 455 kts | 342° |
| 2026-05-03 21:12 | 29.66620 | -81.67710 | 35171 ft | 455 kts | 343° |
| 2026-05-03 21:13 | 29.72929 | -81.68296 | 35172 ft | 455 kts | 343° |
| 2026-05-03 21:13 | 29.79234 | -81.68875 | 35177 ft | 455 kts | 343° |
| 2026-05-03 21:14 | 29.85543 | -81.69457 | 35176 ft | 455 kts | 343° |
| 2026-05-03 21:14 | 29.91853 | -81.70042 | 35173 ft | 455 kts | 343° |
| 2026-05-03 21:15 | 29.98122 | -81.70630 | 35160 ft | 455 kts | 343° |
| 2026-05-03 21:15 | 30.04434 | -81.71217 | 35155 ft | 455 kts | 343° |
| 2026-05-03 21:16 | 30.10755 | -81.71807 | 35161 ft | 456 kts | 343° |
| 2026-05-03 21:16 | 30.17071 | -81.72402 | 35161 ft | 456 kts | 343° |
| 2026-05-03 21:17 | 30.20234 | -81.72699 | 34934 ft | 456 kts | 343° |
| 2026-05-03 21:17 | 30.22382 | -81.72904 | 34325 ft | 462 kts | 343° |
| 2026-05-03 21:17 | 30.26390 | -81.73934 | 33398 ft | 438 kts | 327° |
| 2026-05-03 21:17 | 30.29219 | -81.75264 | 33185 ft | 441 kts | 327° |
| 2026-05-03 21:18 | 30.34965 | -81.77959 | 33141 ft | 446 kts | 327° |
| 2026-05-03 21:18 | 30.40721 | -81.80650 | 33133 ft | 446 kts | 327° |
| 2026-05-03 21:19 | 30.46481 | -81.83356 | 33139 ft | 447 kts | 327° |
| 2026-05-03 21:19 | 30.52237 | -81.86074 | 33146 ft | 447 kts | 327° |
| 2026-05-03 21:20 | 30.57964 | -81.88778 | 33160 ft | 447 kts | 327° |
| 2026-05-03 21:20 | 30.63732 | -81.91500 | 33179 ft | 447 kts | 327° |
| 2026-05-03 21:21 | 30.69495 | -81.94226 | 33180 ft | 447 kts | 327° |
| 2026-05-03 21:21 | 30.75263 | -81.96963 | 33190 ft | 448 kts | 327° |
| 2026-05-03 21:22 | 30.81031 | -81.99706 | 33182 ft | 448 kts | 327° |
| 2026-05-03 21:22 | 30.86797 | -82.02449 | 33178 ft | 448 kts | 327° |
| 2026-05-03 21:23 | 30.92573 | -82.05189 | 33170 ft | 448 kts | 327° |
| 2026-05-03 21:23 | 30.98348 | -82.07934 | 33163 ft | 448 kts | 327° |
| 2026-05-03 21:24 | 31.04109 | -82.10683 | 33150 ft | 448 kts | 327° |
| 2026-05-03 21:24 | 31.09876 | -82.13439 | 33145 ft | 448 kts | 327° |
| 2026-05-03 21:25 | 31.15647 | -82.16203 | 33141 ft | 448 kts | 327° |
| 2026-05-03 21:25 | 31.21411 | -82.18967 | 33134 ft | 448 kts | 327° |
| 2026-05-03 21:26 | 31.27133 | -82.21720 | 33134 ft | 447 kts | 327° |
| 2026-05-03 21:26 | 31.32885 | -82.24483 | 33135 ft | 447 kts | 327° |
| 2026-05-03 21:27 | 31.38639 | -82.27240 | 33132 ft | 447 kts | 327° |
| 2026-05-03 21:27 | 31.44388 | -82.30005 | 33134 ft | 446 kts | 327° |
| 2026-05-03 21:28 | 31.50125 | -82.32777 | 33137 ft | 446 kts | 327° |
| 2026-05-03 21:28 | 31.55867 | -82.35556 | 33141 ft | 446 kts | 327° |
| 2026-05-03 21:29 | 31.61610 | -82.38325 | 33147 ft | 446 kts | 327° |
| 2026-05-03 21:29 | 31.67347 | -82.41097 | 33143 ft | 446 kts | 327° |
| 2026-05-03 21:30 | 31.73039 | -82.43861 | 33144 ft | 445 kts | 327° |
| 2026-05-03 21:30 | 31.78759 | -82.46640 | 33138 ft | 445 kts | 327° |
| 2026-05-03 21:31 | 31.84479 | -82.49419 | 33137 ft | 445 kts | 327° |
| 2026-05-03 21:31 | 31.90219 | -82.52205 | 33139 ft | 445 kts | 327° |
| 2026-05-03 21:32 | 31.95857 | -82.55132 | 33136 ft | 434 kts | 319° |
| 2026-05-03 21:32 | 31.98274 | -82.57150 | 33141 ft | 420 kts | 309° |
| 2026-05-03 21:32 | 32.00478 | -82.59408 | 33144 ft | 419 kts | 309° |
| 2026-05-03 21:33 | 32.04892 | -82.63913 | 33137 ft | 420 kts | 309° |
| 2026-05-03 21:33 | 32.07101 | -82.66158 | 33147 ft | 420 kts | 309° |